Terminal Aerodrome Forecast
Issued by NWS

Home | Current Version | Previous Version | Text Only | Print | Product List | Glossary Off
Versions: 1 2 3 4 5 6 7 8 9 10 11 12 13

734
FTUS43 KMPX 042339
TAFRNH
TAF
KRNH 042339Z 0500/0524 36010KT P6SM SKC
     FM050300 VRB03KT P6SM SCT150
     FM051200 17004KT P6SM VCSH SCT080 BKN120
     FM051600 21008KT P6SM SCT120=

USA.gov is the U.S. government's official web portal to all federal, state and local government web resources and services.